Billings, MT (59101)

6:11 AM MDT on July 29, 2016 (GMT -0600)
Jupiter Sulphur | | Change Station

Elev 3114 ft 45.78 °N, 108.49 °W | Updated 12 minutes ago

Partly Cloudy
Partly Cloudy
59.8 °F
Feels Like 59.8 °F
N
0.0
Wind Variable Wind from SE
Gusts 1.0 mph

Today
High -- | Low -- °F
--% Chance of Precip.
Yesterday
High -- | Low -- °F
Precip. -- in
Pressure 30.01 in
Visibility 10.0 miles
Clouds Few 8000 ft
Few 14000 ft
Dew Point 53 °F
Humidity 78%
Rainfall 0.00 in
Snow Depth Not available.
5:54 AM 8:45 PM
Waning Crescent, 22% visible
METAR KBIL 291153Z 34003KT 10SM FEW080 FEW140 16/09 A3009 RMK AO2 SLP162 TCU DSNT N T01560094 10211 20150 55002
Pressure 30.01 in
Visibility 10.0 miles
Clouds Few 8000 ft
Few 14000 ft
Dew Point 53 °F
Humidity 78%
Rainfall 0.00 in
Snow Depth Not available.
5:54 AM 8:45 PM
Waning Crescent, 22% visible
METAR KBIL 291153Z 34003KT 10SM FEW080 FEW140 16/09 A3009 RMK AO2 SLP162 TCU DSNT N T01560094 10211 20150 55002

10-Day Weather Forecast

Almanac

Astronomy

Jul. 29, 2016 Rise Set
Actual Time
Civil Twilight
Nautical Twilight
Astronomical Twilight
Moon
Length of Visible Light
Length of Day
Tomorrow will be .
, % of the Moon is Illuminated

Today's Extremes

State Highs State Lows

Community

WunderPhotos

Upload Photos

1,928,330 photos uploaded!

WunderBlog® & News

Nearby

Air Quality

  Air Quality AQ Index Pollutant
Not available.

Snow Depth

Station Depth Elevation

Earthquake Activity

City Distance Mag. Time & Date
Minimum magnitude displayed is 2.5.

Coastal Water Temperatures

Place Temperature

Stations

Nearby Weather Stations

Station Location Temp. Windchill Dew Point Humidity Wind Precip. Elev Updated Type
                   

Watches & Warnings

There are currently no watches in effect.